Time;durP1;ratioP1;P1;durP2;ratioP2;P2;SDS_P1;SDS_P2;PMS_P1;PMS_P2;Temp;Humidity;BMP_temperature;BMP_pressure;BME280_temperature;BME280_humidity;BME280_pressure;Samples;Min_cycle;Max_cycle;Signal;HPM_P1;HPM_P2
2020/12/19 00:00:39;;;;;;;42.85;20.33;;;;;;;1.14;97.74;101642.31;5014320;28;20050;-54
2020/12/19 00:03:06;;;;;;;42.78;19.73;;;;;;;1.14;97.81;101637.97;5019574;28;20164;-53
2020/12/19 00:05:33;;;;;;;43.17;19.77;;;;;;;1.08;98.08;101642.31;5011248;28;20426;-58
2020/12/19 00:08:01;;;;;;;44.83;21.08;;;;;;;1.10;98.14;101640.59;5012987;28;20061;-56
2020/12/19 00:10:28;;;;;;;42.35;19.63;;;;;;;1.09;98.40;101631.94;5016418;28;20532;-57
2020/12/19 00:12:59;;;;;;;40.80;19.67;;;;;;;1.02;97.68;101635.44;5005501;28;20132;-54
2020/12/19 00:15:26;;;;;;;47.88;21.45;;;;;;;1.02;97.73;101632.84;5017590;28;20066;-58
2020/12/19 00:17:53;;;;;;;39.25;20.52;;;;;;;1.00;98.31;101630.25;5010635;28;20168;-60
2020/12/19 00:20:20;;;;;;;47.05;21.27;;;;;;;0.99;98.19;101625.94;5015853;28;20534;-57
2020/12/19 00:22:47;;;;;;;44.50;20.45;;;;;;;0.97;98.20;101625.06;5001668;28;20182;-58
2020/12/19 00:25:14;;;;;;;43.75;21.27;;;;;;;0.93;98.76;101627.69;5011381;28;20136;-58
2020/12/19 00:27:40;;;;;;;43.22;21.20;;;;;;;1.01;98.63;101625.94;5007333;28;20065;-59
2020/12/19 00:30:08;;;;;;;52.20;21.88;;;;;;;0.95;98.31;101626.81;5006058;28;20054;-56
2020/12/19 00:32:38;;;;;;;48.03;20.60;;;;;;;1.00;98.16;101624.22;5006296;28;20153;-55
2020/12/19 00:35:06;;;;;;;39.97;18.95;;;;;;;0.94;98.40;101622.47;5007019;28;20054;-58
2020/12/19 00:37:32;;;;;;;44.63;19.08;;;;;;;0.94;99.00;101630.25;5005270;28;20057;-59
2020/12/19 00:39:59;;;;;;;41.40;20.15;;;;;;;0.89;99.23;101629.41;5005583;28;20077;-54
2020/12/19 00:42:26;;;;;;;47.28;20.95;;;;;;;0.89;98.63;101632.00;5005030;28;20050;-52
2020/12/19 00:44:52;;;;;;;43.47;20.95;;;;;;;0.81;98.53;101628.59;5007039;28;20064;-58
2020/12/19 00:47:20;;;;;;;47.72;20.60;;;;;;;0.80;98.65;101623.41;5006135;28;20127;-55
2020/12/19 00:49:46;;;;;;;41.10;19.67;;;;;;;0.84;98.75;101620.78;5005888;28;20057;-56
2020/12/19 00:52:13;;;;;;;46.58;19.52;;;;;;;0.75;98.82;101621.66;5007173;28;20533;-55
2020/12/19 00:54:40;;;;;;;47.42;21.80;;;;;;;0.72;99.04;101618.22;5007362;28;20119;-58
2020/12/19 00:57:07;;;;;;;46.67;21.58;;;;;;;0.75;99.32;101613.03;5005654;28;20046;-57
2020/12/19 00:59:33;;;;;;;51.58;22.35;;;;;;;0.73;99.37;101613.06;5005438;28;20054;-59
2020/12/19 01:02:00;;;;;;;46.60;20.70;;;;;;;0.72;99.01;101606.16;5006707;28;20472;-54
2020/12/19 01:04:27;;;;;;;50.20;20.90;;;;;;;0.71;99.15;101608.72;5005903;28;20129;-56
2020/12/19 01:06:53;;;;;;;50.70;20.20;;;;;;;0.76;98.95;101609.56;5006544;28;20526;-54
2020/12/19 01:09:22;;;;;;;48.60;20.10;;;;;;;0.65;98.91;101603.56;5006103;28;20428;-54
2020/12/19 01:11:49;;;;;;;47.95;23.25;;;;;;;0.63;99.70;101607.88;5005235;28;20061;-56
2020/12/19 01:14:16;;;;;;;45.85;20.77;;;;;;;0.73;99.25;101601.84;5002813;28;20057;-53
2020/12/19 01:16:42;;;;;;;52.63;21.67;;;;;;;0.69;99.04;101603.56;5007582;28;20060;-57
2020/12/19 01:19:09;;;;;;;54.45;22.13;;;;;;;0.70;98.95;101604.41;5002350;28;20058;-54
2020/12/19 01:21:36;;;;;;;45.50;22.20;;;;;;;0.65;99.34;101600.97;5005081;28;20057;-56
2020/12/19 01:24:02;;;;;;;48.45;21.88;;;;;;;0.65;99.45;101601.84;5006487;28;20150;-57
2020/12/19 01:26:29;;;;;;;48.67;21.23;;;;;;;0.65;98.89;101604.44;5006430;28;20557;-55
2020/12/19 01:28:56;;;;;;;46.92;21.52;;;;;;;0.65;99.19;101600.97;5005275;28;20570;-55
2020/12/19 01:31:23;;;;;;;47.45;22.00;;;;;;;0.63;99.37;101601.00;5006525;28;20060;-60
2020/12/19 01:33:50;;;;;;;49.83;21.13;;;;;;;0.74;98.86;101596.63;4999438;28;20058;-57
2020/12/19 01:36:21;;;;;;;48.80;20.15;;;;;;;0.85;98.90;101601.78;5004888;28;20502;-52
2020/12/19 01:38:49;;;;;;;41.85;20.02;;;;;;;0.80;98.94;101595.75;4998943;28;20054;-56
2020/12/19 01:41:15;;;;;;;47.72;19.98;;;;;;;0.83;98.24;101592.28;5006166;28;20410;-58
2020/12/19 01:43:50;;;;;;;46.35;21.25;;;;;;;0.66;98.59;101603.56;5006179;28;20045;-52
2020/12/19 01:46:31;;;;;;;47.63;21.75;;;;;;;0.62;98.83;101604.44;5009719;28;20471;-59
2020/12/19 01:48:59;;;;;;;47.97;20.52;;;;;;;0.64;98.94;101596.69;5020653;23;20053;-61
2020/12/19 01:51:27;;;;;;;44.25;21.02;;;;;;;0.59;98.84;101595.81;5009920;28;20068;-61
2020/12/19 01:53:54;;;;;;;45.72;21.63;;;;;;;0.55;99.44;101592.38;5024847;28;20068;-60
2020/12/19 01:56:40;;;;;;;49.20;21.90;;;;;;;0.74;98.87;101588.00;5029092;28;20049;-57
2020/12/19 01:59:07;;;;;;;50.17;20.95;;;;;;;0.70;98.55;101578.50;5012172;28;20400;-61
2020/12/19 02:01:50;;;;;;;48.40;20.55;;;;;;;0.57;98.81;101580.25;5029018;28;20065;-56
2020/12/19 02:04:19;;;;;;;50.70;20.65;;;;;;;0.60;98.86;101576.81;5029280;28;20095;-61
2020/12/19 02:06:48;;;;;;;46.95;21.02;;;;;;;0.52;99.14;101578.56;5031631;28;20065;-61
2020/12/19 02:09:16;;;;;;;46.58;21.58;;;;;;;0.50;99.53;101578.56;5031823;28;20419;-60
2020/12/19 02:11:43;;;;;;;49.13;21.48;;;;;;;0.48;99.37;101570.78;4997696;28;20164;-59
2020/12/19 02:14:11;;;;;;;44.78;19.92;;;;;;;0.48;99.58;101573.38;5029896;28;20053;-59
2020/12/19 02:16:38;;;;;;;43.47;19.80;;;;;;;0.44;99.07;101571.66;5029583;28;20528;-60
2020/12/19 02:19:14;;;;;;;47.33;19.27;;;;;;;0.50;99.92;101578.56;5012686;28;20283;-59
2020/12/19 02:21:42;;;;;;;55.50;21.55;;;;;;;0.47;99.62;101571.66;4991870;28;20046;-59
2020/12/19 02:24:09;;;;;;;49.13;21.00;;;;;;;0.57;98.84;101572.50;5007103;28;20060;-58
2020/12/19 02:26:35;;;;;;;43.75;22.10;;;;;;;0.50;99.07;101563.88;5012280;28;20042;-60
2020/12/19 02:29:03;;;;;;;52.88;22.92;;;;;;;0.42;99.09;101570.81;5024559;28;20053;-60
2020/12/19 02:31:29;;;;;;;43.92;20.85;;;;;;;0.38;99.50;101570.81;5030115;28;20564;-59
2020/12/19 02:33:56;;;;;;;53.28;20.98;;;;;;;0.39;99.22;101557.00;5030206;28;20461;-55
2020/12/19 02:36:23;;;;;;;50.35;21.27;;;;;;;0.28;99.78;101554.44;5031737;28;20192;-55
2020/12/19 02:38:49;;;;;;;47.00;20.55;;;;;;;0.40;99.19;101562.16;5030728;28;20069;-60
2020/12/19 02:41:17;;;;;;;50.90;21.38;;;;;;;0.42;99.56;101555.25;5029579;28;20087;-61
2020/12/19 02:43:51;;;;;;;53.85;21.40;;;;;;;0.40;99.26;101562.16;5028912;28;20099;-61
2020/12/19 02:46:17;;;;;;;52.38;21.77;;;;;;;0.32;99.42;101553.56;5028078;28;20065;-59
2020/12/19 02:48:44;;;;;;;50.00;20.17;;;;;;;0.35;99.78;101543.19;5029301;28;20103;-60
2020/12/19 02:51:11;;;;;;;48.67;21.67;;;;;;;0.31;99.59;101541.47;5026126;28;20065;-58
2020/12/19 02:53:37;;;;;;;47.08;22.05;;;;;;;0.35;99.84;101538.00;5031223;28;20050;-60
2020/12/19 02:56:04;;;;;;;43.55;19.95;;;;;;;0.31;99.65;101527.66;5031086;28;20061;-56
2020/12/19 02:58:31;;;;;;;46.30;21.98;;;;;;;0.25;100.00;101531.97;5028281;28;20180;-61
2020/12/19 03:00:57;;;;;;;47.40;21.83;;;;;;;0.35;99.29;101532.81;5031111;28;20050;-60
2020/12/19 03:03:24;;;;;;;48.75;20.25;;;;;;;0.36;99.61;101531.09;5032445;28;20057;-61
2020/12/19 03:05:51;;;;;;;43.78;20.30;;;;;;;0.22;99.87;101524.22;5046050;28;20037;-62
2020/12/19 03:08:18;;;;;;;53.17;22.02;;;;;;;0.30;100.00;101519.03;5041282;28;20076;-60
2020/12/19 03:10:45;;;;;;;48.03;22.77;;;;;;;0.24;100.00;101519.91;5035338;28;20068;-60
2020/12/19 03:13:11;;;;;;;51.25;22.35;;;;;;;0.27;100.00;101519.06;5029134;28;20518;-58
2020/12/19 03:15:38;;;;;;;48.65;21.25;;;;;;;0.25;100.00;101515.59;5010691;28;20217;-60
2020/12/19 03:18:05;;;;;;;50.72;20.98;;;;;;;0.33;99.89;101516.44;5024905;28;20064;-59
2020/12/19 03:20:31;;;;;;;46.75;20.73;;;;;;;0.38;99.81;101512.09;5002934;28;20569;-57
2020/12/19 03:22:58;;;;;;;44.22;19.80;;;;;;;0.31;99.51;101512.09;5027418;28;20518;-61
2020/12/19 03:25:26;;;;;;;46.95;20.05;;;;;;;0.28;99.82;101513.00;5030297;28;20054;-61
2020/12/19 03:27:54;;;;;;;43.25;20.70;;;;;;;0.30;99.90;101503.47;5027709;28;20530;-60
2020/12/19 03:30:24;;;;;;;45.70;20.08;;;;;;;0.19;99.67;101510.44;5026764;28;20502;-58
2020/12/19 03:32:52;;;;;;;50.03;21.75;;;;;;;0.29;99.94;101504.34;5027227;28;20088;-60
2020/12/19 03:35:20;;;;;;;45.28;19.38;;;;;;;0.33;99.86;101500.03;5028133;28;20152;-60
2020/12/19 03:37:47;;;;;;;48.13;20.50;;;;;;;0.34;99.72;101507.78;5005806;28;20419;-60
2020/12/19 03:40:14;;;;;;;52.10;21.55;;;;;;;0.36;99.34;101506.06;5010280;28;20053;-59
2020/12/19 03:42:41;;;;;;;51.67;22.13;;;;;;;0.30;99.22;101503.47;5028088;28;20058;-61
2020/12/19 03:45:08;;;;;;;49.08;20.83;;;;;;;0.28;99.50;101505.22;5031608;28;20058;-62
2020/12/19 03:47:35;;;;;;;50.33;20.63;;;;;;;0.32;99.52;101511.28;4999721;28;20051;-59
2020/12/19 03:50:03;;;;;;;49.05;21.05;;;;;;;0.25;99.91;101495.72;5031941;28;20089;-59
2020/12/19 03:52:29;;;;;;;48.25;21.58;;;;;;;0.09;99.68;101501.81;5002846;28;20076;-61
2020/12/19 03:54:56;;;;;;;47.85;22.15;;;;;;;0.09;99.96;101498.34;5033412;28;20057;-57
2020/12/19 03:57:23;;;;;;;40.42;19.10;;;;;;;0.09;100.00;101499.25;5031173;28;20065;-60
2020/12/19 03:59:49;;;;;;;48.63;20.30;;;;;;;0.18;100.00;101490.56;5031060;28;20545;-58
2020/12/19 04:02:16;;;;;;;44.80;20.42;;;;;;;0.08;99.88;101492.31;5028699;28;20457;-60
2020/12/19 04:04:43;;;;;;;53.35;20.55;;;;;;;0.04;100.00;101485.41;5009559;28;20147;-57
2020/12/19 04:07:10;;;;;;;46.92;21.10;;;;;;;0.03;100.00;101486.28;5027990;28;20518;-59
2020/12/19 04:09:38;;;;;;;51.67;19.70;;;;;;;0.13;100.00;101485.38;5008276;28;20083;-58
2020/12/19 04:12:05;;;;;;;60.17;23.52;;;;;;;0.11;100.00;101479.38;5010427;28;20123;-59
2020/12/19 04:14:38;;;;;;;53.60;21.77;;;;;;;0.05;100.00;101473.34;5027547;28;20088;-60
2020/12/19 04:17:06;;;;;;;47.45;20.13;;;;;;;0.08;100.00;101476.78;5025694;28;20410;-59
2020/12/19 04:19:32;;;;;;;45.83;19.40;;;;;;;0.04;100.00;101479.38;5026168;28;20061;-57
2020/12/19 04:21:59;;;;;;;50.83;20.98;;;;;;;0.17;100.00;101481.94;5027148;28;20049;-60
2020/12/19 04:24:26;;;;;;;47.28;20.92;;;;;;;0.05;100.00;101479.41;5026445;28;20401;-61
2020/12/19 04:26:53;;;;;;;41.75;20.02;;;;;;;0.10;99.99;101474.19;5027430;28;20181;-58
2020/12/19 04:29:20;;;;;;;44.80;20.10;;;;;;;0.08;100.00;101478.50;5025190;28;20049;-60
2020/12/19 04:31:47;;;;;;;48.53;19.63;;;;;;;0.08;100.00;101478.50;5025127;28;20124;-61
2020/12/19 04:34:13;;;;;;;48.00;20.25;;;;;;;0.03;99.76;101490.59;5023134;28;20521;-60
2020/12/19 04:36:41;;;;;;;43.47;18.80;;;;;;;-0.06;100.00;101489.75;5027475;28;20049;-57
2020/12/19 04:39:07;;;;;;;45.28;19.05;;;;;;;-0.05;100.00;101493.19;5029472;28;20126;-57
2020/12/19 04:41:34;;;;;;;50.55;22.17;;;;;;;-0.11;100.00;101488.03;5037619;28;20061;-61
2020/12/19 04:44:02;;;;;;;49.63;21.63;;;;;;;-0.01;100.00;101495.78;5027747;28;20061;-63
2020/12/19 04:46:30;;;;;;;48.90;20.38;;;;;;;-0.12;100.00;101491.50;5030745;28;20088;-59
2020/12/19 04:48:59;;;;;;;53.58;21.27;;;;;;;0.04;100.00;101488.00;5026353;28;20141;-59
2020/12/19 04:51:27;;;;;;;48.70;19.20;;;;;;;-0.02;100.00;101498.38;5027369;28;20081;-58
2020/12/19 04:53:54;;;;;;;50.20;20.17;;;;;;;-0.06;100.00;101489.75;5028077;28;20144;-61
2020/12/19 04:56:23;;;;;;;43.92;19.08;;;;;;;-0.12;100.00;101494.94;5026996;28;20505;-59
2020/12/19 04:58:59;;;;;;;54.97;22.25;;;;;;;-0.14;100.00;101494.06;5028020;28;20064;-56
2020/12/19 05:01:26;;;;;;;49.15;19.92;;;;;;;-0.16;100.00;101493.22;5026318;28;20218;-59
2020/12/19 05:03:54;;;;;;;49.80;20.88;;;;;;;-0.17;100.00;101491.50;5006725;28;20395;-54
2020/12/19 05:06:23;;;;;;;45.97;20.33;;;;;;;-0.10;100.00;101493.19;5026205;28;20059;-58
2020/12/19 05:08:50;;;;;;;50.33;19.52;;;;;;;-0.26;100.00;101499.28;5028804;28;20053;-59
2020/12/19 05:11:17;;;;;;;53.55;21.48;;;;;;;-0.30;100.00;101492.38;4995063;28;20910;-60
2020/12/19 05:13:44;;;;;;;48.25;19.63;;;;;;;-0.24;100.00;101494.94;5029674;28;20553;-60
2020/12/19 05:16:13;;;;;;;51.75;21.70;;;;;;;-0.23;100.00;101499.25;5028202;28;20053;-60
2020/12/19 05:18:40;;;;;;;58.22;20.60;;;;;;;-0.23;100.00;101499.25;5024517;28;20480;-60
2020/12/19 05:21:08;;;;;;;48.78;20.33;;;;;;;-0.12;100.00;101499.25;5027868;28;20046;-59
2020/12/19 05:23:36;;;;;;;47.78;20.02;;;;;;;-0.08;100.00;101507.00;5025925;28;20054;-60
2020/12/19 05:26:04;;;;;;;49.38;21.67;;;;;;;-0.26;100.00;101500.13;5027126;28;20631;-60
2020/12/19 05:28:37;;;;;;;48.92;18.05;;;;;;;-0.25;100.00;101506.16;5025003;28;20769;-59
2020/12/19 05:31:04;;;;;;;49.70;19.65;;;;;;;-0.24;100.00;101505.28;5027660;28;20229;-57
2020/12/19 05:33:41;;;;;;;50.53;20.30;;;;;;;-0.29;100.00;101504.44;5028284;28;20058;-59
2020/12/19 05:36:21;;;;;;;51.05;20.65;;;;;;;-0.24;100.00;101509.59;5039951;28;20033;-59
2020/12/19 05:38:48;;;;;;;47.63;20.02;;;;;;;-0.26;100.00;101507.88;5024103;28;20042;-60
2020/12/19 05:41:23;;;;;;;51.42;20.15;;;;;;;-0.16;100.00;101495.81;5028645;28;20137;-61
2020/12/19 05:43:51;;;;;;;50.25;19.35;;;;;;;-0.17;100.00;101491.50;5036688;28;20064;-61
2020/12/19 05:46:35;;;;;;;53.75;22.08;;;;;;;-0.20;100.00;101494.06;5009203;28;20054;-61
2020/12/19 05:49:03;;;;;;;53.53;20.30;;;;;;;-0.28;100.00;101499.25;5032137;28;20062;-58
2020/12/19 05:51:32;;;;;;;50.15;20.83;;;;;;;-0.28;100.00;101496.66;5031251;28;20081;-61
2020/12/19 05:54:06;;;;;;;51.33;20.80;;;;;;;-0.19;100.00;101493.22;5005202;28;20089;-60
2020/12/19 05:56:35;;;;;;;51.15;20.10;;;;;;;-0.26;100.00;101497.53;5027043;28;20057;-58
2020/12/19 05:59:02;;;;;;;50.00;20.08;;;;;;;-0.16;100.00;101497.53;5022720;28;20528;-61
2020/12/19 06:01:30;;;;;;;51.53;20.13;;;;;;;-0.12;100.00;101494.09;5029861;28;20627;-59
2020/12/19 06:04:03;;;;;;;53.90;20.85;;;;;;;-0.15;100.00;101491.47;5029108;28;20609;-59
2020/12/19 06:06:31;;;;;;;48.63;17.90;;;;;;;-0.18;100.00;101489.78;5033962;28;20057;-59
2020/12/19 06:08:59;;;;;;;48.35;20.95;;;;;;;-0.17;100.00;101498.41;5031158;28;20186;-60
2020/12/19 06:11:28;;;;;;;54.60;22.20;;;;;;;-0.14;100.00;101490.63;5028461;28;20061;-56
2020/12/19 06:13:57;;;;;;;52.47;21.45;;;;;;;-0.09;100.00;101499.22;5007593;28;20103;-61
2020/12/19 06:16:24;;;;;;;48.25;20.95;;;;;;;-0.10;100.00;101498.38;5008728;28;20061;-58
2020/12/19 06:18:51;;;;;;;44.40;18.63;;;;;;;-0.12;100.00;101499.25;5011049;28;20073;-61
2020/12/19 06:21:18;;;;;;;47.72;20.85;;;;;;;-0.15;100.00;101494.94;5028778;28;20072;-59
2020/12/19 06:23:45;;;;;;;46.03;20.27;;;;;;;-0.12;100.00;101492.34;5013753;28;20053;-60
2020/12/19 06:26:13;;;;;;;48.15;20.45;;;;;;;-0.10;100.00;101488.03;5030956;28;20057;-60
2020/12/19 06:28:42;;;;;;;51.20;19.98;;;;;;;-0.08;100.00;101486.31;5025465;28;20055;-59
2020/12/19 06:31:11;;;;;;;49.38;22.42;;;;;;;-0.09;100.00;101494.06;5028945;28;20057;-61
2020/12/19 06:33:39;;;;;;;49.38;21.35;;;;;;;-0.13;100.00;101488.03;5028818;28;20060;-59
2020/12/19 06:36:24;;;;;;;50.00;20.45;;;;;;;-0.11;100.00;101491.47;5010455;28;20063;-61
2020/12/19 06:38:54;;;;;;;59.72;22.67;;;;;;;-0.03;100.00;101489.75;5009295;28;20053;-60
2020/12/19 06:41:44;;;;;;;45.13;18.50;;;;;;;-0.08;100.00;101483.72;5029210;28;20056;-61
2020/12/19 06:44:15;;;;;;;44.65;19.15;;;;;;;-0.05;100.00;101494.03;5024829;28;20151;-61
2020/12/19 06:46:42;;;;;;;47.85;19.88;;;;;;;-0.08;100.00;101488.91;5028482;28;20495;-58
2020/12/19 06:49:26;;;;;;;54.08;21.23;;;;;;;-0.08;100.00;101480.28;5028459;28;20060;-61
2020/12/19 06:52:02;;;;;;;49.72;21.48;;;;;;;-0.01;100.00;101477.66;5032153;28;20443;-58
2020/12/19 06:54:31;;;;;;;46.67;20.92;;;;;;;0.06;100.00;101482.84;5011033;28;20289;-56
2020/12/19 06:56:58;;;;;;;49.97;22.45;;;;;;;0.05;100.00;101486.31;5023685;28;20071;-56
2020/12/19 06:59:26;;;;;;;49.97;19.98;;;;;;;0.00;100.00;101491.47;5030160;28;20068;-61
2020/12/19 07:02:15;;;;;;;50.63;20.63;;;;;;;0.04;100.00;101482.81;5030840;28;20164;-58
2020/12/19 07:04:42;;;;;;;50.53;20.92;;;;;;;0.13;100.00;101480.22;5018404;28;20089;-60
2020/12/19 07:07:10;;;;;;;46.67;20.40;;;;;;;0.10;100.00;101482.81;4991747;28;20069;-61
2020/12/19 07:09:38;;;;;;;49.00;21.17;;;;;;;0.13;100.00;101481.94;5031378;28;20057;-59
2020/12/19 07:12:05;;;;;;;49.13;21.67;;;;;;;0.15;100.00;101478.50;4995353;28;20399;-62
2020/12/19 07:14:39;;;;;;;52.78;22.88;;;;;;;0.24;100.00;101482.78;5014364;28;20116;-58
2020/12/19 07:17:19;;;;;;;45.95;22.77;;;;;;;0.28;100.00;101487.09;5028764;28;20157;-56
2020/12/19 07:19:47;;;;;;;52.30;22.98;;;;;;;0.24;100.00;101486.25;5023559;28;20068;-60
2020/12/19 07:22:14;;;;;;;52.13;23.83;;;;;;;0.21;100.00;101486.25;5017915;28;20502;-62
2020/12/19 07:24:41;;;;;;;58.88;24.90;;;;;;;0.25;100.00;101485.38;5037365;28;20058;-63
2020/12/19 07:27:07;;;;;;;54.47;23.10;;;;;;;0.21;100.00;101481.06;5035914;28;20057;-60
2020/12/19 07:29:34;;;;;;;51.08;22.17;;;;;;;0.30;100.00;101475.00;5029753;28;20140;-59
2020/12/19 07:32:01;;;;;;;46.55;20.40;;;;;;;0.35;100.00;101474.97;5016422;28;20385;-61
2020/12/19 07:34:29;;;;;;;53.20;23.52;;;;;;;0.33;100.00;101480.19;5028800;28;20049;-58
2020/12/19 07:36:56;;;;;;;48.67;21.65;;;;;;;0.37;100.00;101481.03;5027807;28;20172;-56
2020/12/19 07:39:24;;;;;;;50.90;21.85;;;;;;;0.41;100.00;101485.34;5028378;28;20068;-60
2020/12/19 07:42:01;;;;;;;45.50;20.30;;;;;;;0.49;99.77;101481.81;5028124;28;20049;-59
2020/12/19 07:44:28;;;;;;;45.25;21.35;;;;;;;0.48;99.33;101482.69;4994586;28;20148;-61
2020/12/19 07:46:57;;;;;;;46.00;19.70;;;;;;;0.56;99.52;101474.06;5011398;28;20425;-61
2020/12/19 07:49:33;;;;;;;41.90;19.02;;;;;;;0.48;99.22;101467.16;5021090;23;20073;-55
2020/12/19 07:52:14;;;;;;;39.92;19.20;;;;;;;0.47;99.87;101470.63;5020992;28;20057;-56
2020/12/19 07:54:45;;;;;;;45.67;20.05;;;;;;;0.50;99.66;101470.63;5022435;28;20522;-57
2020/12/19 07:57:11;;;;;;;44.78;19.88;;;;;;;0.54;99.77;101458.53;5010479;28;20053;-56
2020/12/19 07:59:39;;;;;;;46.83;20.17;;;;;;;0.52;99.54;101468.00;4991345;28;20050;-58
2020/12/19 08:02:06;;;;;;;48.60;20.80;;;;;;;0.56;99.45;101468.88;5008097;28;20137;-57
2020/12/19 08:04:33;;;;;;;41.13;19.08;;;;;;;0.58;99.45;101456.75;5006833;28;20072;-56
2020/12/19 08:06:59;;;;;;;43.90;20.42;;;;;;;0.66;99.22;101457.59;5007815;28;20054;-55
2020/12/19 08:09:31;;;;;;;45.75;18.98;;;;;;;0.98;98.19;101465.19;5007421;28;20053;-57
2020/12/19 08:12:00;;;;;;;38.47;18.85;;;;;;;2.37;92.30;101450.09;5007795;28;20168;-59
2020/12/19 08:14:27;;;;;;;43.22;18.83;;;;;;;3.31;86.32;101445.34;5007761;28;20100;-56
2020/12/19 08:16:54;;;;;;;27.42;15.40;;;;;;;3.73;84.23;101443.75;5007939;28;20199;-59
2020/12/19 08:19:36;;;;;;;34.22;15.80;;;;;;;4.40;80.86;101440.75;5006341;28;20065;-55
2020/12/19 08:22:06;;;;;;;35.15;15.65;;;;;;;4.91;79.28;101457.06;5007749;28;20053;-59
2020/12/19 08:24:33;;;;;;;27.92;15.23;;;;;;;5.28;76.77;101449.25;4989407;28;20157;-52
2020/12/19 08:27:26;;;;;;;27.13;14.32;;;;;;;5.21;77.08;101449.41;5006948;28;20049;-60
2020/12/19 08:30:16;;;;;;;26.95;14.15;;;;;;;5.57;74.58;101451.13;5003826;28;20232;-60
2020/12/19 08:32:43;;;;;;;29.38;14.48;;;;;;;4.98;76.23;101457.78;5007214;28;20057;-56
2020/12/19 08:35:17;;;;;;;23.67;13.82;;;;;;;4.72;77.32;101464.41;5006547;28;20299;-57
2020/12/19 08:37:43;;;;;;;28.02;14.45;;;;;;;4.53;79.01;101484.81;5006497;28;20057;-58
2020/12/19 08:40:15;;;;;;;28.08;13.82;;;;;;;3.96;81.34;101487.66;5007043;28;20096;-59
2020/12/19 08:42:44;;;;;;;23.25;13.27;;;;;;;4.15;80.57;101490.78;4989839;28;20410;-57
2020/12/19 08:45:11;;;;;;;25.05;13.88;;;;;;;3.92;81.65;101482.53;4985400;28;20092;-59
2020/12/19 08:47:39;;;;;;;26.23;13.88;;;;;;;4.55;79.52;101472.59;5006711;28;20077;-58
2020/12/19 08:50:06;;;;;;;25.30;13.88;;;;;;;4.36;79.69;101494.69;4986440;28;20438;-59
2020/12/19 08:52:33;;;;;;;24.67;13.90;;;;;;;4.67;79.18;101465.41;5006880;28;20561;-58
2020/12/19 08:55:00;;;;;;;22.58;13.07;;;;;;;5.34;75.90;101490.84;4988525;28;20045;-57
2020/12/19 08:57:27;;;;;;;26.77;14.75;;;;;;;5.58;74.97;101478.09;5007922;28;20136;-61
2020/12/19 09:00:13;;;;;;;22.95;13.55;;;;;;;5.31;75.40;101477.91;4989267;28;20426;-58
2020/12/19 09:02:40;;;;;;;;;;;;;;;3.78;81.81;101483.63;5005924;28;20046;-61
2020/12/19 09:05:08;;;;;;;27.95;15.25;;;;;;;3.25;84.54;101481.88;5006853;28;19967;-59
2020/12/19 09:07:35;;;;;;;24.73;13.90;;;;;;;3.02;85.84;101488.25;5006532;28;20050;-58
2020/12/19 09:10:29;;;;;;;28.00;15.10;;;;;;;2.83;87.63;101491.13;5006338;28;20054;-61
2020/12/19 09:13:17;;;;;;;27.70;14.02;;;;;;;2.74;88.38;101487.75;4966942;28;20128;-61
2020/12/19 09:15:45;;;;;;;27.67;15.07;;;;;;;2.79;88.61;101488.56;5005692;28;20058;-58
2020/12/19 09:18:12;;;;;;;34.03;14.85;;;;;;;2.81;88.71;101492.88;5004739;28;20092;-57
2020/12/19 09:20:39;;;;;;;30.73;15.85;;;;;;;2.79;88.52;101491.19;5006996;28;20554;-59
2020/12/19 09:23:06;;;;;;;29.33;14.95;;;;;;;2.72;88.80;101486.91;5004155;28;20418;-57
2020/12/19 09:25:33;;;;;;;30.95;15.98;;;;;;;2.81;89.59;101487.69;5007457;28;20079;-54
2020/12/19 09:28:00;;;;;;;27.42;14.63;;;;;;;2.83;89.00;101486.78;5005571;28;20054;-60
2020/12/19 09:30:26;;;;;;;30.05;16.05;;;;;;;2.82;89.77;101485.06;5005866;28;20058;-58
2020/12/19 09:32:53;;;;;;;27.65;15.98;;;;;;;2.86;89.72;101480.69;5005983;28;20078;-55
2020/12/19 09:35:20;;;;;;;27.65;14.40;;;;;;;2.89;89.26;101478.91;5005877;28;20061;-55
2020/12/19 09:37:47;;;;;;;25.98;14.70;;;;;;;2.91;89.77;101476.28;5005720;28;20603;-59
2020/12/19 09:40:25;;;;;;;28.73;15.23;;;;;;;2.97;89.01;101479.66;5005957;28;20076;-59
2020/12/19 09:42:52;;;;;;;25.73;14.60;;;;;;;2.97;89.46;101479.66;5005934;28;20054;-56
2020/12/19 09:45:19;;;;;;;26.08;14.45;;;;;;;3.05;88.86;101475.19;5007385;28;20073;-58
2020/12/19 09:47:47;;;;;;;26.77;13.27;;;;;;;3.04;89.46;101468.28;5006978;28;20081;-59
2020/12/19 09:50:14;;;;;;;24.92;13.60;;;;;;;3.08;88.91;101463.91;5006559;28;20066;-58
2020/12/19 09:52:41;;;;;;;26.55;15.32;;;;;;;3.10;89.02;101456.06;5005852;28;20562;-57
2020/12/19 09:55:09;;;;;;;24.25;14.00;;;;;;;3.13;89.21;101456.88;5004631;28;20053;-57
2020/12/19 09:57:36;;;;;;;21.50;13.40;;;;;;;3.23;88.76;101455.00;5005065;28;20050;-62
2020/12/19 10:00:05;;;;;;;24.77;13.50;;;;;;;3.28;88.34;101450.56;5007804;28;20054;-59
2020/12/19 10:02:32;;;;;;;27.60;14.55;;;;;;;3.36;87.96;101450.47;5006317;28;20140;-59
2020/12/19 10:04:58;;;;;;;26.75;13.23;;;;;;;3.34;88.07;101460.06;5008040;28;20058;-56
2020/12/19 10:07:25;;;;;;;23.73;13.13;;;;;;;3.45;87.66;101458.13;5010346;28;20050;-59
2020/12/19 10:09:52;;;;;;;29.65;13.68;;;;;;;3.42;87.70;101452.94;5010083;28;20380;-59
2020/12/19 10:12:19;;;;;;;21.42;11.70;;;;;;;3.47;88.34;101456.38;5009633;28;20054;-58
2020/12/19 10:14:45;;;;;;;21.75;12.77;;;;;;;3.48;87.31;101461.53;5009043;28;20426;-61
2020/12/19 10:17:13;;;;;;;24.70;13.63;;;;;;;3.57;87.88;101451.88;4994205;28;20149;-58
2020/12/19 10:19:39;;;;;;;22.00;11.68;;;;;;;3.66;87.81;101455.16;5010132;28;20495;-62
2020/12/19 10:22:06;;;;;;;21.63;12.73;;;;;;;3.69;86.87;101441.22;4995357;28;20054;-61
2020/12/19 10:24:33;;;;;;;22.45;13.25;;;;;;;3.77;86.33;101442.81;5006784;28;20157;-61
2020/12/19 10:26:59;;;;;;;24.70;12.93;;;;;;;3.77;86.85;101450.63;4991972;28;20049;-60
2020/12/19 10:29:26;;;;;;;23.77;12.55;;;;;;;3.87;85.94;101446.09;5009190;28;20058;-57
2020/12/19 10:31:53;;;;;;;23.33;13.75;;;;;;;3.95;85.62;101436.41;5009051;28;20161;-59
2020/12/19 10:34:20;;;;;;;21.98;12.30;;;;;;;4.01;85.79;101438.06;5007943;28;20046;-57
2020/12/19 10:36:51;;;;;;;21.05;11.82;;;;;;;4.09;85.37;101437.91;5008794;28;20056;-55
2020/12/19 10:39:17;;;;;;;20.65;10.73;;;;;;;4.20;84.93;101438.56;5006994;28;20425;-58
2020/12/19 10:41:50;;;;;;;21.45;11.45;;;;;;;4.24;85.34;101441.06;5008163;28;20628;-60
2020/12/19 10:44:17;;;;;;;19.65;11.73;;;;;;;4.23;84.77;101449.78;5009526;28;20053;-59
2020/12/19 10:46:43;;;;;;;22.27;11.93;;;;;;;4.26;84.71;101448.84;5009928;28;20049;-59
2020/12/19 10:49:10;;;;;;;22.38;12.75;;;;;;;4.27;84.97;101445.34;4991233;28;20069;-58
2020/12/19 10:51:37;;;;;;;24.67;10.93;;;;;;;4.27;84.67;101445.34;5007789;28;20411;-58
2020/12/19 10:54:04;;;;;;;18.10;11.20;;;;;;;4.45;84.25;101441.53;5008119;28;20080;-58
2020/12/19 10:56:30;;;;;;;20.67;10.80;;;;;;;4.50;83.87;101443.16;5007601;28;20057;-57
2020/12/19 10:58:57;;;;;;;18.73;10.90;;;;;;;4.56;83.88;101432.59;5008328;28;20065;-57
2020/12/19 11:01:24;;;;;;;21.40;11.70;;;;;;;4.47;83.44;101432.78;4991778;28;20112;-58
2020/12/19 11:03:51;;;;;;;17.92;10.90;;;;;;;4.48;84.61;101439.72;5008402;28;20072;-56
2020/12/19 11:06:25;;;;;;;23.40;12.15;;;;;;;4.58;84.19;101428.19;4990311;28;20077;-59
2020/12/19 11:08:53;;;;;;;23.88;12.50;;;;;;;4.58;83.50;101437.78;5008399;28;20199;-58
2020/12/19 11:11:26;;;;;;;19.88;10.93;;;;;;;4.64;83.62;101428.94;5008910;28;20057;-58
2020/12/19 11:13:53;;;;;;;21.17;11.52;;;;;;;4.60;83.29;101428.19;5006845;28;20056;-56
2020/12/19 11:16:25;;;;;;;20.63;11.68;;;;;;;4.70;83.34;101429.69;5006568;28;20054;-61
2020/12/19 11:18:52;;;;;;;19.70;10.50;;;;;;;4.66;83.71;101430.66;5007808;28;20065;-60
2020/12/19 11:21:19;;;;;;;20.33;12.13;;;;;;;4.60;83.84;101422.09;4990898;28;20545;-53